Terminal Aerodrome Forecast
Issued by NWS

Home | Current Version | Previous Version | Text Only | Print | Product List | Glossary On
Versions: 1 2 3 4 5 6 7 8 9 10 11 12 13 14 15 16 17 18 19 20 21
000
FTUS43 KPAH 070520
TAFCGI
TAF
KCGI 070520Z 0706/0806 19008KT P6SM SCT020 BKN150
     FM070900 19006KT P6SM SCT040 BKN100
      TEMPO 0710/0714 4SM -TSRA BR BKN030CB
     FM071400 21010KT P6SM SCT030 BKN050
     FM072000 23012KT P6SM VCTS SCT020CB BKN040
      TEMPO 0722/0802 3SM TSRA OVC020CB
     FM080300 25010KT P6SM BKN030=

USA.gov is the U.S. government's official web portal to all federal, state and local government web resources and services.